createdAt,value
2022-10-05T00:01:52.927Z,11.25
2022-10-05T00:04:23.111Z,11.08
2022-10-05T00:06:59.032Z,11.00
2022-10-05T00:09:27.054Z,11.03
2022-10-05T00:11:55.046Z,11.02
2022-10-05T00:14:28.141Z,10.93
2022-10-05T00:16:56.818Z,10.87
2022-10-05T00:19:30.145Z,10.73
2022-10-05T00:22:00.367Z,10.73
2022-10-05T00:24:28.298Z,10.71
2022-10-05T00:26:58.247Z,10.67
2022-10-05T00:29:26.346Z,10.54
2022-10-05T00:31:54.318Z,10.67
2022-10-05T00:34:22.296Z,10.64
2022-10-05T00:36:50.247Z,10.64
2022-10-05T00:39:20.850Z,10.49
2022-10-05T00:42:08.500Z,10.55
2022-10-05T00:44:43.015Z,10.43
2022-10-05T00:47:28.601Z,10.34
2022-10-05T00:50:28.766Z,10.22
2022-10-05T00:53:06.282Z,10.22
2022-10-05T00:55:51.296Z,10.28
2022-10-05T00:58:29.240Z,10.46
2022-10-05T01:01:07.594Z,10.53
2022-10-05T01:03:45.171Z,10.59
2022-10-05T01:06:23.677Z,10.62
2022-10-05T01:08:59.574Z,10.60
2022-10-05T01:11:35.389Z,10.59
2022-10-05T01:14:13.492Z,10.53
2022-10-05T01:16:47.906Z,10.55
2022-10-05T01:19:33.696Z,10.51
2022-10-05T01:22:10.268Z,10.48
2022-10-05T01:24:51.134Z,10.44
2022-10-05T01:27:48.344Z,10.44
2022-10-05T01:30:18.810Z,10.48
2022-10-05T01:32:53.110Z,10.44
2022-10-05T01:35:38.102Z,10.38
2022-10-05T01:38:21.278Z,10.31
2022-10-05T01:40:59.159Z,10.30
2022-10-05T01:43:37.101Z,10.23
2022-10-05T01:46:15.833Z,10.23
2022-10-05T01:48:54.103Z,10.22
2022-10-05T01:51:31.997Z,10.26
2022-10-05T01:54:11.627Z,10.22
2022-10-05T01:56:43.186Z,10.15
2022-10-05T01:59:23.451Z,10.06
2022-10-05T02:01:59.774Z,10.23
2022-10-05T02:07:24.886Z,10.23
2022-10-05T02:09:59.586Z,10.22
2022-10-05T02:12:32.150Z,10.16
2022-10-05T02:15:09.435Z,10.16
2022-10-05T02:17:43.052Z,10.17
2022-10-05T02:20:16.066Z,10.16
2022-10-05T02:22:48.419Z,10.14
2022-10-05T02:25:20.806Z,10.11
2022-10-05T02:27:54.927Z,10.07
2022-10-05T02:30:24.423Z,10.10
2022-10-05T02:32:57.215Z,10.08
2022-10-05T02:35:25.147Z,10.06
2022-10-05T02:38:07.459Z,10.01
2022-10-05T02:40:46.813Z,9.98
2022-10-05T02:43:24.666Z,9.98
2022-10-05T02:46:03.119Z,9.84
2022-10-05T02:48:41.213Z,9.85
2022-10-05T02:51:21.467Z,9.89
2022-10-05T02:54:00.399Z,9.88
2022-10-05T02:56:36.856Z,9.83
2022-10-05T02:59:12.319Z,9.74
2022-10-05T03:01:49.303Z,9.73
2022-10-05T03:04:27.220Z,9.75
2022-10-05T03:07:04.783Z,9.77
2022-10-05T03:09:44.882Z,9.77
2022-10-05T03:12:26.115Z,9.76
2022-10-05T03:15:05.145Z,9.69
2022-10-05T03:17:44.024Z,9.69
2022-10-05T03:20:26.562Z,9.71
2022-10-05T03:22:58.719Z,9.71
2022-10-05T03:25:46.537Z,9.67
2022-10-05T03:28:20.533Z,9.59
2022-10-05T03:30:57.399Z,9.59
2022-10-05T03:33:34.453Z,9.58
2022-10-05T03:36:10.925Z,9.51
2022-10-05T03:38:46.078Z,9.52
2022-10-05T03:41:19.185Z,9.53
2022-10-05T03:44:32.871Z,9.48
2022-10-05T03:47:09.890Z,9.47
2022-10-05T03:49:51.077Z,9.49
2022-10-05T03:52:24.362Z,9.45
2022-10-05T03:54:57.505Z,9.41
2022-10-05T03:57:29.171Z,9.42
2022-10-05T04:00:04.457Z,9.42
2022-10-05T04:02:35.816Z,9.41
2022-10-05T04:05:15.670Z,9.31
2022-10-05T04:07:47.542Z,9.37
2022-10-05T04:10:21.669Z,9.37
2022-10-05T04:12:52.697Z,9.35
2022-10-05T04:15:31.085Z,9.30
2022-10-05T04:18:04.545Z,9.28
2022-10-05T04:20:42.191Z,9.25
2022-10-05T04:23:20.438Z,9.22
2022-10-05T04:25:51.596Z,9.06
2022-10-05T04:28:31.190Z,9.13
2022-10-05T04:31:03.934Z,9.09
2022-10-05T04:33:33.158Z,9.11
2022-10-05T04:36:14.886Z,9.05
2022-10-05T04:38:52.476Z,8.92
2022-10-05T04:41:35.223Z,8.80
2022-10-05T04:44:19.875Z,8.80
2022-10-05T04:47:05.302Z,8.81
2022-10-05T04:49:49.651Z,8.90
2022-10-05T04:52:26.143Z,8.95
2022-10-05T04:55:10.160Z,8.96
2022-10-05T04:57:47.346Z,9.02
2022-10-05T05:00:23.737Z,9.06
2022-10-05T05:03:05.496Z,9.10
2022-10-05T05:06:05.080Z,9.06
2022-10-05T05:08:46.717Z,9.13
2022-10-05T05:11:28.244Z,9.25
2022-10-05T05:14:23.920Z,9.32
2022-10-05T05:16:59.863Z,9.45
2022-10-05T05:19:42.583Z,9.59
2022-10-05T05:22:21.408Z,9.82
2022-10-05T05:25:04.670Z,9.97
2022-10-05T05:27:44.479Z,10.06
2022-10-05T05:30:22.552Z,10.27
2022-10-05T05:33:16.063Z,10.43
2022-10-05T05:36:05.272Z,10.62
2022-10-05T05:38:37.262Z,10.66
2022-10-05T05:41:11.431Z,10.84
2022-10-05T05:43:49.394Z,10.95
2022-10-05T05:46:38.839Z,11.08
2022-10-05T05:49:17.170Z,11.23
2022-10-05T05:51:51.214Z,11.35
2022-10-05T05:54:27.977Z,11.52
2022-10-05T05:57:08.153Z,11.71
2022-10-05T05:59:53.387Z,11.95
2022-10-05T06:02:24.796Z,12.16
2022-10-05T06:04:58.181Z,12.21
2022-10-05T06:07:31.092Z,12.49
2022-10-05T06:10:05.952Z,12.68
2022-10-05T06:12:41.038Z,12.81
2022-10-05T06:15:28.550Z,12.98
2022-10-05T06:18:00.740Z,13.14
2022-10-05T06:20:34.786Z,13.35
2022-10-05T06:23:06.083Z,13.49
2022-10-05T06:25:44.454Z,13.70
2022-10-05T06:28:16.237Z,13.86
2022-10-05T06:30:53.358Z,13.89
2022-10-05T06:33:40.241Z,14.06
2022-10-05T06:36:18.773Z,14.24
2022-10-05T06:39:09.194Z,14.34
2022-10-05T06:41:47.970Z,14.46
2022-10-05T06:44:21.519Z,14.63
2022-10-05T06:47:01.278Z,14.77
2022-10-05T06:49:35.096Z,14.82
2022-10-05T06:52:13.904Z,14.99
2022-10-05T06:54:53.354Z,14.97
2022-10-05T06:57:41.374Z,15.05
2022-10-05T07:00:19.359Z,15.18
2022-10-05T07:02:55.024Z,15.26
2022-10-05T07:05:48.685Z,15.33
2022-10-05T07:08:25.483Z,15.42
2022-10-05T07:11:05.614Z,15.50
2022-10-05T07:13:59.236Z,15.51
2022-10-05T07:16:40.426Z,15.71
2022-10-05T07:19:28.735Z,15.83
2022-10-05T07:22:10.680Z,15.99
2022-10-05T07:24:43.654Z,16.09
2022-10-05T07:27:17.023Z,16.26
2022-10-05T07:29:52.090Z,16.25
2022-10-05T07:32:34.422Z,16.32
2022-10-05T07:35:30.984Z,16.51
2022-10-05T07:38:03.582Z,16.55
2022-10-05T07:40:39.341Z,16.31
2022-10-05T07:43:19.845Z,16.42
2022-10-05T07:45:53.267Z,16.42
2022-10-05T07:48:26.775Z,16.56
2022-10-05T07:51:01.038Z,16.69
2022-10-05T07:53:36.135Z,16.82
2022-10-05T07:56:10.856Z,16.95
2022-10-05T07:58:44.592Z,17.12
2022-10-05T08:01:19.321Z,17.13
2022-10-05T08:03:59.938Z,17.31
2022-10-05T08:06:41.474Z,17.22
2022-10-05T08:09:22.496Z,17.35
2022-10-05T08:11:58.863Z,17.49
2022-10-05T08:14:33.819Z,17.47
2022-10-05T08:17:06.938Z,17.62
2022-10-05T08:19:44.497Z,17.79
2022-10-05T08:22:19.539Z,17.95
2022-10-05T08:24:54.555Z,18.11
2022-10-05T08:27:27.841Z,18.22
2022-10-05T08:30:01.457Z,18.27
2022-10-05T08:32:36.019Z,18.27
2022-10-05T08:35:19.001Z,18.40
2022-10-05T08:37:48.990Z,18.36
2022-10-05T08:40:39.649Z,18.47
2022-10-05T08:43:19.962Z,18.13
2022-10-05T08:46:18.710Z,18.21
2022-10-05T08:49:35.026Z,18.43
2022-10-05T08:52:23.710Z,18.39
2022-10-05T08:55:28.398Z,18.39
2022-10-05T08:58:05.279Z,18.12
2022-10-05T09:00:47.111Z,18.01
2022-10-05T09:03:43.089Z,18.32
2022-10-05T09:06:46.507Z,18.36
2022-10-05T09:09:42.208Z,18.59
2022-10-05T09:12:37.550Z,18.78
2022-10-05T09:15:26.018Z,18.89
2022-10-05T09:18:25.047Z,18.93
2022-10-05T09:20:54.388Z,18.99
2022-10-05T09:23:39.391Z,19.04
2022-10-05T09:26:43.071Z,19.27
2022-10-05T09:29:38.071Z,19.29
2022-10-05T09:32:33.069Z,19.56
2022-10-05T09:35:15.153Z,19.51
2022-10-05T09:38:07.198Z,19.58
2022-10-05T09:41:20.150Z,19.11
2022-10-05T09:44:37.367Z,18.94
2022-10-05T09:47:34.846Z,19.02
2022-10-05T09:50:44.434Z,18.93
2022-10-05T09:53:43.278Z,19.22
2022-10-05T09:56:50.084Z,18.90
2022-10-05T09:59:51.707Z,19.05
2022-10-05T10:02:52.543Z,19.21
2022-10-05T10:05:40.835Z,19.28
2022-10-05T10:08:20.315Z,19.04
2022-10-05T10:11:08.014Z,19.11
2022-10-05T10:13:55.878Z,19.18
2022-10-05T10:16:39.020Z,19.23
2022-10-05T10:19:32.203Z,19.39
2022-10-05T10:22:44.910Z,19.41
2022-10-05T10:25:25.837Z,19.44
2022-10-05T10:28:16.336Z,19.39
2022-10-05T10:31:01.268Z,19.58
2022-10-05T10:34:10.251Z,19.66
2022-10-05T10:37:08.399Z,19.87
2022-10-05T10:39:54.477Z,19.93
2022-10-05T10:42:37.635Z,20.01
2022-10-05T10:45:21.203Z,20.01
2022-10-05T10:48:00.392Z,20.07
2022-10-05T10:51:14.925Z,19.79
2022-10-05T10:54:12.291Z,19.90
2022-10-05T10:56:58.168Z,19.94
2022-10-05T11:00:04.110Z,19.99
2022-10-05T11:03:01.228Z,19.95
2022-10-05T11:06:07.657Z,19.83
2022-10-05T11:09:09.759Z,19.69
2022-10-05T11:12:02.501Z,19.69
2022-10-05T11:14:46.577Z,19.18
2022-10-05T11:17:20.995Z,19.23
2022-10-05T11:20:04.740Z,19.01
2022-10-05T11:23:05.859Z,18.94
2022-10-05T11:25:55.101Z,18.91
2022-10-05T11:29:13.709Z,18.57
2022-10-05T11:32:07.173Z,18.61
2022-10-05T11:35:13.650Z,18.68
2022-10-05T11:37:58.543Z,18.60
2022-10-05T11:40:47.708Z,18.41
2022-10-05T11:43:43.302Z,18.41
2022-10-05T11:46:18.173Z,18.51
2022-10-05T11:49:03.675Z,18.62
2022-10-05T11:51:43.585Z,18.65
2022-10-05T11:54:25.209Z,18.74
2022-10-05T11:56:58.399Z,18.87
2022-10-05T11:59:34.589Z,18.69
2022-10-05T12:02:14.037Z,18.78
2022-10-05T12:04:53.255Z,18.85
2022-10-05T12:07:28.810Z,18.95
2022-10-05T12:10:17.403Z,18.92
2022-10-05T12:12:59.111Z,18.78
2022-10-05T12:15:32.492Z,18.81
2022-10-05T12:18:08.383Z,18.81
2022-10-05T12:20:46.035Z,18.77
2022-10-05T12:23:19.259Z,18.79
2022-10-05T12:25:51.638Z,18.57
2022-10-05T12:28:27.174Z,18.45
2022-10-05T12:31:23.696Z,18.35
2022-10-05T12:34:02.961Z,18.44
2022-10-05T12:37:02.437Z,18.36
2022-10-05T12:39:36.230Z,18.52
2022-10-05T12:42:15.855Z,18.50
2022-10-05T12:45:07.869Z,18.50
2022-10-05T12:47:53.754Z,18.54
2022-10-05T12:50:28.781Z,18.59
2022-10-05T12:53:14.947Z,18.38
2022-10-05T12:55:49.977Z,18.25
2022-10-05T12:58:30.414Z,18.19
2022-10-05T13:01:11.079Z,18.33
2022-10-05T13:03:45.753Z,18.38
2022-10-05T13:06:22.070Z,18.23
2022-10-05T13:08:55.993Z,18.29
2022-10-05T13:11:33.585Z,18.20
2022-10-05T13:14:16.554Z,18.12
2022-10-05T13:16:55.164Z,18.18
2022-10-05T13:19:39.267Z,18.08
2022-10-05T13:22:28.546Z,17.83
2022-10-05T13:25:10.098Z,17.93
2022-10-05T13:27:45.062Z,17.96
2022-10-05T13:30:15.804Z,18.00
2022-10-05T13:32:48.090Z,17.86
2022-10-05T13:35:44.426Z,17.72
2022-10-05T13:38:25.678Z,17.52
2022-10-05T13:41:03.453Z,17.78
2022-10-05T13:43:44.775Z,17.57
2022-10-05T13:46:22.168Z,17.51
2022-10-05T13:49:04.353Z,17.41
2022-10-05T13:51:42.251Z,17.17
2022-10-05T13:54:18.657Z,17.15
2022-10-05T13:56:50.126Z,16.90
2022-10-05T13:59:28.950Z,17.02
2022-10-05T14:01:59.990Z,16.91
2022-10-05T14:04:31.249Z,16.95
2022-10-05T14:07:21.802Z,16.85
2022-10-05T14:09:51.081Z,16.77
2022-10-05T14:12:23.346Z,16.63
2022-10-05T14:14:53.113Z,16.68
2022-10-05T14:17:38.240Z,16.73
2022-10-05T14:20:25.031Z,16.87
2022-10-05T14:22:59.462Z,16.59
2022-10-05T14:25:29.053Z,16.41
2022-10-05T14:28:01.954Z,16.55
2022-10-05T14:30:31.090Z,16.56
2022-10-05T14:33:14.007Z,16.57
2022-10-05T14:35:50.635Z,16.29
2022-10-05T14:38:23.087Z,16.28
2022-10-05T14:41:17.328Z,16.34
2022-10-05T14:43:53.972Z,16.05
2022-10-05T14:46:28.308Z,15.81
2022-10-05T14:49:19.366Z,15.78
2022-10-05T14:51:47.269Z,15.88
2022-10-05T14:54:27.818Z,15.73
2022-10-05T14:57:08.506Z,15.71
2022-10-05T15:00:01.170Z,15.90
2022-10-05T15:03:04.561Z,16.16
2022-10-05T15:05:36.611Z,16.33
2022-10-05T15:08:21.246Z,16.38
2022-10-05T15:10:57.854Z,16.43
2022-10-05T15:13:32.262Z,16.44
2022-10-05T15:16:05.848Z,16.40
2022-10-05T15:18:39.568Z,16.42
2022-10-05T15:21:54.552Z,16.36
2022-10-05T15:24:26.471Z,16.27
2022-10-05T15:26:58.211Z,16.14
2022-10-05T15:29:41.987Z,16.10
2022-10-05T15:32:22.732Z,15.98
2022-10-05T15:35:06.680Z,15.98
2022-10-05T15:37:43.183Z,15.87
2022-10-05T15:40:22.975Z,15.83
2022-10-05T15:42:54.713Z,15.78
2022-10-05T15:45:32.441Z,15.73
2022-10-05T15:48:04.274Z,15.66
2022-10-05T15:50:38.801Z,15.57
2022-10-05T15:53:16.696Z,15.46
2022-10-05T15:55:51.983Z,15.39
2022-10-05T15:58:39.503Z,15.39
2022-10-05T16:01:12.648Z,15.29
2022-10-05T16:03:53.498Z,15.21
2022-10-05T16:06:56.730Z,15.12
2022-10-05T16:09:47.270Z,14.96
2022-10-05T16:12:23.501Z,14.90
2022-10-05T16:15:03.107Z,14.78
2022-10-05T16:17:51.092Z,14.58
2022-10-05T16:20:29.966Z,14.40
2022-10-05T16:23:06.447Z,14.26
2022-10-05T16:25:46.373Z,14.29
2022-10-05T16:28:25.359Z,14.22
2022-10-05T16:31:09.626Z,14.19
2022-10-05T16:33:55.234Z,14.08
2022-10-05T16:36:33.498Z,14.03
2022-10-05T16:39:07.636Z,13.93
2022-10-05T16:41:44.916Z,13.86
2022-10-05T16:44:23.295Z,13.77
2022-10-05T16:46:59.200Z,13.73
2022-10-05T16:49:36.991Z,13.59
2022-10-05T16:52:07.151Z,13.52
2022-10-05T16:54:45.416Z,13.50
2022-10-05T16:57:21.176Z,13.46
2022-10-05T17:00:13.434Z,13.51
2022-10-05T17:03:02.451Z,13.43
2022-10-05T17:05:45.349Z,13.37
2022-10-05T17:08:46.053Z,13.32
2022-10-05T17:11:28.605Z,13.32
2022-10-05T17:14:17.933Z,13.28
2022-10-05T17:16:58.914Z,13.21
2022-10-05T17:19:40.675Z,13.18
2022-10-05T17:22:13.872Z,13.10
2022-10-05T17:24:53.202Z,13.02
2022-10-05T17:27:30.414Z,12.97
2022-10-05T17:30:38.756Z,12.92
2022-10-05T17:33:25.966Z,12.86
2022-10-05T17:36:12.529Z,12.74
2022-10-05T17:38:52.150Z,12.71
2022-10-05T17:41:25.624Z,12.67
2022-10-05T17:44:33.081Z,12.58
2022-10-05T17:47:04.037Z,12.49
2022-10-05T17:50:16.273Z,12.48
2022-10-05T17:53:03.936Z,12.44
2022-10-05T17:56:03.372Z,12.32
2022-10-05T17:59:03.511Z,12.23
2022-10-05T18:01:36.495Z,12.12
2022-10-05T18:04:24.050Z,12.19
2022-10-05T18:07:02.460Z,12.12
2022-10-05T18:09:36.294Z,11.92
2022-10-05T18:12:39.918Z,11.80
2022-10-05T18:15:48.594Z,11.63
2022-10-05T18:18:58.809Z,11.54
2022-10-05T18:21:34.354Z,11.62
2022-10-05T18:24:21.547Z,11.47
2022-10-05T18:26:59.701Z,11.46
2022-10-05T18:30:05.311Z,11.26
2022-10-05T18:33:08.830Z,11.26
2022-10-05T18:35:50.374Z,11.21
2022-10-05T18:38:32.283Z,11.00
2022-10-05T18:41:09.214Z,10.85
2022-10-05T18:43:43.398Z,10.75
2022-10-05T18:46:17.642Z,10.66
2022-10-05T18:48:55.922Z,10.67
2022-10-05T18:51:31.496Z,10.67
2022-10-05T18:54:13.073Z,10.54
2022-10-05T18:56:46.361Z,10.61
2022-10-05T18:59:38.183Z,10.56
2022-10-05T19:02:24.601Z,10.68
2022-10-05T19:05:02.925Z,10.76
2022-10-05T19:07:44.893Z,10.82
2022-10-05T19:10:21.398Z,10.76
2022-10-05T19:13:11.926Z,10.68
2022-10-05T19:15:51.472Z,10.74
2022-10-05T19:18:42.887Z,10.52
2022-10-05T19:21:24.691Z,10.54
2022-10-05T19:24:12.475Z,10.56
2022-10-05T19:26:57.818Z,10.85
2022-10-05T19:29:37.813Z,11.01
2022-10-05T19:32:18.586Z,11.14
2022-10-05T19:35:07.160Z,11.23
2022-10-05T19:37:48.021Z,11.26
2022-10-05T19:40:24.482Z,11.26
2022-10-05T19:43:15.825Z,11.19
2022-10-05T19:45:54.441Z,11.11
2022-10-05T19:48:34.312Z,11.01
2022-10-05T19:51:03.595Z,10.99
2022-10-05T19:53:36.288Z,11.06
2022-10-05T19:56:18.066Z,11.29
2022-10-05T19:58:45.973Z,11.37
2022-10-05T20:01:26.084Z,11.50
2022-10-05T20:03:58.031Z,11.42
2022-10-05T20:06:27.046Z,11.33
2022-10-05T20:09:00.057Z,11.38
2022-10-05T20:11:29.413Z,11.22
2022-10-05T20:14:20.936Z,11.47
2022-10-05T20:17:06.268Z,11.51
2022-10-05T20:19:57.432Z,11.52
2022-10-05T20:22:32.841Z,11.50
2022-10-05T20:25:02.407Z,11.42
2022-10-05T20:27:55.550Z,11.43
2022-10-05T20:30:25.274Z,11.45
2022-10-05T20:32:57.630Z,11.40
2022-10-05T20:35:30.566Z,11.46
2022-10-05T20:37:59.481Z,11.37
2022-10-05T20:40:27.672Z,11.35
2022-10-05T20:42:55.626Z,11.33
2022-10-05T20:45:23.766Z,11.32
2022-10-05T20:47:51.677Z,11.27
2022-10-05T20:50:21.162Z,11.23
2022-10-05T20:52:50.485Z,11.20
2022-10-05T20:55:18.592Z,11.19
2022-10-05T20:57:47.430Z,11.17
2022-10-05T21:00:15.547Z,11.14
2022-10-05T21:02:43.471Z,11.10
2022-10-05T21:05:11.474Z,11.17
2022-10-05T21:07:40.975Z,11.19
2022-10-05T21:10:11.014Z,11.14
2022-10-05T21:12:38.978Z,11.03
2022-10-05T21:15:07.961Z,11.06
2022-10-05T21:17:36.417Z,11.06
2022-10-05T21:20:04.659Z,11.02
2022-10-05T21:22:32.558Z,10.99
2022-10-05T21:25:00.473Z,10.96
2022-10-05T21:27:29.953Z,10.93
2022-10-05T21:29:57.867Z,10.87
2022-10-05T21:32:25.793Z,10.94
2022-10-05T21:34:53.702Z,10.96
2022-10-05T21:37:21.611Z,10.97
2022-10-05T21:39:49.532Z,10.98
2022-10-05T21:42:17.458Z,11.02
2022-10-05T21:44:46.757Z,11.02
2022-10-05T21:47:14.727Z,11.05
2022-10-05T21:49:43.245Z,11.02
2022-10-05T21:52:11.163Z,11.03
2022-10-05T21:54:39.123Z,11.02
2022-10-05T21:57:07.061Z,11.02
2022-10-05T21:59:35.864Z,11.01
2022-10-05T22:02:05.270Z,11.00
2022-10-05T22:04:33.199Z,11.02
2022-10-05T22:07:01.285Z,11.02
2022-10-05T22:09:29.266Z,11.02
2022-10-05T22:11:57.439Z,11.01
2022-10-05T22:14:25.470Z,11.01
2022-10-05T22:16:54.173Z,10.99
2022-10-05T22:19:23.585Z,10.96
2022-10-05T22:21:51.493Z,10.94
2022-10-05T22:24:19.726Z,10.95
2022-10-05T22:26:51.538Z,10.95
2022-10-05T22:29:21.278Z,10.87
2022-10-05T22:31:49.597Z,10.89
2022-10-05T22:34:18.317Z,10.83
2022-10-05T22:36:48.523Z,10.83
2022-10-05T22:39:17.119Z,10.77
2022-10-05T22:41:45.168Z,10.80
2022-10-05T22:44:13.078Z,10.77
2022-10-05T22:46:41.010Z,10.77
2022-10-05T22:49:08.911Z,10.74
2022-10-05T22:51:36.891Z,10.73
2022-10-05T22:54:06.566Z,10.65
2022-10-05T22:56:34.557Z,10.67
2022-10-05T22:59:02.482Z,10.68
2022-10-05T23:01:30.461Z,10.66
2022-10-05T23:03:58.454Z,10.67
2022-10-05T23:06:27.524Z,10.64
2022-10-05T23:08:55.982Z,10.64
2022-10-05T23:11:30.226Z,10.60
2022-10-05T23:13:59.960Z,10.56
2022-10-05T23:16:29.787Z,10.54
2022-10-05T23:18:58.497Z,10.51
2022-10-05T23:21:30.235Z,10.46
2022-10-05T23:23:58.226Z,10.37
2022-10-05T23:26:27.715Z,10.32
2022-10-05T23:28:55.694Z,10.23
2022-10-05T23:31:26.057Z,10.24
2022-10-05T23:33:54.345Z,10.20
2022-10-05T23:36:23.822Z,10.18
2022-10-05T23:38:52.192Z,10.19
2022-10-05T23:41:20.680Z,10.18
2022-10-05T23:43:50.273Z,10.15
2022-10-05T23:46:18.695Z,10.01
2022-10-05T23:48:46.681Z,10.13
2022-10-05T23:51:15.989Z,10.12
2022-10-05T23:53:44.637Z,10.11
2022-10-05T23:56:13.282Z,10.12
2022-10-05T23:58:41.758Z,10.11
